Estación Meteorológica Peña el Pijo (Robertgarden) [ 11/19/19 10:37:45 CET ]

Fecha Hora Presion(HPa) Temp (°C) Humedad % Rocio (°C) Viento ( m/s) Direccion Lluvia 1Hora(mm) Lluvia 24H(mm) LLuvia Total(mm)
2019-May-14 01:01:42 1011.600 13.2 72 8.3         318.05
2019-May-14 02:01:49 1011.500 12.5 74 8.0         318.05
2019-May-14 03:02:21 1011.100 11.2 77 7.3         318.05
2019-May-14 04:02:09 1010.900 10.9 79 7.4         318.05
2019-May-14 05:02:07 1010.500 10.4 82 7.4         318.05
2019-May-14 06:02:04 1010.400 10.3 82 7.3         318.05
2019-May-14 07:01:49 1010.700 9.8 83 7.0         318.05
2019-May-14 08:01:54 1010.600 9.9 85 7.4         318.05
2019-May-14 09:01:50 1010.500 13.1 67 7.1         318.05
2019-May-14 10:01:39 1010.200 18.1 40 4.3         318.05
2019-May-14 11:01:47 1010.100 22.0 25 0.9 1.1 N     318.05
2019-May-14 12:01:48 1009.800 23.9 24 1.9         318.05
2019-May-14 13:01:42 1009.600 26.5 24 4.1         318.05
2019-May-14 14:01:40 1009.000 25.6 26 4.5         318.05
2019-May-14 15:01:42 1008.800 27.1 26 5.6         318.05
2019-May-14 16:01:41 1008.100 28.6 23 5.2         318.05
2019-May-14 17:01:28 1007.600 29.1 23 5.1         318.05
2019-May-14 18:01:37 1007.300 28.3 25 6.1         318.05
2019-May-14 19:01:51 1007.100 26.6 28 6.5         318.05
2019-May-14 20:01:11 1007.000 23.8 31 5.9         318.05
2019-May-14 21:01:20 1007.300 19.3 42 6.0         318.05
2019-May-14 22:01:59 1007.700 15.9 54 6.6         318.05
2019-May-14 23:01:56 1008.200 13.8 61 6.4         318.05

Temperatura Máxima:29°    Temperatura Mínima:
Presión Máxima:1011.600 Hpa    Presión Mínima:1007.000 Hpa


Volver